Reading, Kansas
Current Conditions -  °F | °C
As of 2:53 PM on Tuesday 21 Oct 2014 (Local Time) from KEMP Reporting Station
Clear Clear  
Wind Chill: 75°   Ceiling: Unl
Heat Index: 75°   Visibility: 10mi
Dew Point: 51°   Wind: 8mph
Humidity: 43%   Direction: 110°ESE
Pressure: 30.06"   Gusts: NA
Location:  38.52°N, 95.96°W
Report Text: KEMP 211953Z AUTO 11007KT 10SM CLR 24/11 A3006 RMK AO2 SLP176 T02390106
Loading
Personal Weather Stations






























Interactive Weather Map
Tropical Storm Tracking
New forecast layout! Learn more

10-Day Weather Forecast

Advertisements
Track Severe Weather on mobile